SULAYMANIYAH INTERNATIONAL AIRPORT
  • SulyAir
  • SulyAir
1 1
Arrival

ArrivalsMore >>

Departure

DeparturesMore >>

TAF

TAF ORSU 081700Z 0818/0918 33006KT CAVOK
BECMG 0901/0903 04012KT
BECMG 0907/0909 25008KT =

METARs

METAR ORSU 082100Z 29004KT CAVOK 21/09 Q1015=